^^
WestSenecaWeather Station Historical Data
 
Daily Summary for January 22, 2020 Units:  English    Metric   Both
Daily Weekly Monthly Yearly Custom
  Current: High: Low: Average:
Temperature: 24.2 °F 27.2 °F 23.9 °F 25.4 °F
Dew Point: 18.6 °F 22.4 °F 17.8 °F 19.6 °F
Humidity: 79% 82% 77% 78%
Wind Speed: 6mph 12.7mph 2mph 6.1mph
Wind Gust: 12mph 16mph - -
WindNNW - - NNW
Pressure: 30.41 in 30.42 in 30.41 in -
Precipitation: 0 in      
Historical Graphs
 
 
Tabular Data for January 22, 2020
Time Temperature Dew Point Pressure Wind Wind Speed Wind Gust Humidity Rainfall Rate (Hourly) solar
00:00 27.2 °F 22.4 °F 30.42 in North 5 mph 12 mph 82% 0 in WeatherDisplay:10.37 W/m2
00:05 27.2 °F 22.4 °F 30.42 in North 3 mph 14 mph 82% 0 in WeatherDisplay:10.37 W/m2
00:10 27 °F 22 °F 30.42 in North 5 mph 12 mph 81% 0 in WeatherDisplay:10.37 W/m2
00:15 27 °F 21.9 °F 30.42 in NNW 7 mph 14 mph 81% 0 in WeatherDisplay:10.37 W/m2
00:20 26.9 °F 21.8 °F 30.42 in North 8 mph 15 mph 81% 0 in WeatherDisplay:10.37 W/m2
00:25 26.7 °F 21.4 °F 30.42 in North 6 mph 13 mph 80% 0 in WeatherDisplay:10.37 W/m2
00:30 26.6 °F 21.3 °F 30.42 in North 6 mph 16 mph 80% 0 in WeatherDisplay:10.37 W/m2
00:35 26.6 °F 21 °F 30.42 in NNE 4.6 mph 3.6 mph 79% 0 in WeatherDisplay:10.37 W/m2
00:40 26.5 °F 20.9 °F 30.42 in North 5 mph 12 mph 79% 0 in WeatherDisplay:10.37 W/m2
00:45 26.3 °F 20.7 °F 30.42 in North 3 mph 9 mph 79% 0 in WeatherDisplay:10.37 W/m2
00:50 26.3 °F 20.7 °F 30.42 in North 6 mph 12 mph 79% 0 in WeatherDisplay:10.37 W/m2
00:55 26.2 °F 20.6 °F 30.41 in NNW 6 mph 10 mph 79% 0 in WeatherDisplay:10.37 W/m2
01:00 26.2 °F 20.6 °F 30.41 in North 6 mph 12 mph 79% 0 in WeatherDisplay:10.37 W/m2
01:05 26.2 °F 20.6 °F 30.41 in NNW 7 mph 12 mph 79% 0 in WeatherDisplay:10.37 W/m2
01:10 26.2 °F 20.6 °F 30.41 in North 6 mph 12 mph 79% 0 in WeatherDisplay:10.37 W/m2
01:15 26.2 °F 20.6 °F 30.41 in North 5 mph 12 mph 79% 0 in WeatherDisplay:10.37 W/m2
01:20 26 °F 20.1 °F 30.41 in NNW 3 mph 12 mph 78% 0 in WeatherDisplay:10.37 W/m2
01:25 25.9 °F 20 °F 30.41 in NNW 7 mph 15 mph 78% 0 in WeatherDisplay:10.37 W/m2
01:30 25.8 °F 19.9 °F 30.41 in NW 12.7 mph 7.6 mph 78% 0 in WeatherDisplay:10.37 W/m2
01:35 25.7 °F 19.8 °F 30.41 in NNW 5 mph 13 mph 78% 0 in WeatherDisplay:10.37 W/m2
01:40 25.5 °F 19.6 °F 30.41 in NNW 8 mph 15 mph 78% 0 in WeatherDisplay:10.37 W/m2
01:45 25.3 °F 19.1 °F 30.41 in NNW 7 mph 14 mph 77% 0 in WeatherDisplay:10.37 W/m2
01:50 25.2 °F 19 °F 30.41 in NNW 7 mph 16 mph 77% 0 in WeatherDisplay:10.37 W/m2
01:55 25.2 °F 19 °F 30.41 in NNW 8.1 mph 3.8 mph 77% 0 in WeatherDisplay:10.37 W/m2
02:00 25.1 °F 18.9 °F 30.41 in NNW 5 mph 12 mph 77% 0 in WeatherDisplay:10.37 W/m2
02:05 25 °F 18.8 °F 30.41 in NNW 8 mph 13 mph 77% 0 in WeatherDisplay:10.37 W/m2
02:10 24.9 °F 18.7 °F 30.41 in NNW 7 mph 12 mph 77% 0 in WeatherDisplay:10.37 W/m2
02:15 24.9 °F 18.7 °F 30.41 in NNW 8 mph 14 mph 77% 0 in WeatherDisplay:10.37 W/m2
02:20 24.8 °F 18.6 °F 30.42 in NNW 8 mph 14 mph 77% 0 in WeatherDisplay:10.37 W/m2
02:25 24.7 °F 18.5 °F 30.42 in NNW 7 mph 13 mph 77% 0 in WeatherDisplay:10.37 W/m2
02:30 24.7 °F 18.5 °F 30.42 in NNW 5 mph 10 mph 77% 0 in WeatherDisplay:10.37 W/m2
02:35 24.6 °F 18.5 °F 30.42 in NNW 5 mph 10 mph 77% 0 in WeatherDisplay:10.37 W/m2
02:40 24.5 °F 18.4 °F 30.42 in NNW 6 mph 12 mph 77% 0 in WeatherDisplay:10.37 W/m2
02:45 24.4 °F 18.2 °F 30.42 in NNW 8 mph 12 mph 77% 0 in WeatherDisplay:10.37 W/m2
02:50 24.3 °F 18.1 °F 30.42 in NNW 5 mph 12 mph 77% 0 in WeatherDisplay:10.37 W/m2
02:55 24.2 °F 18 °F 30.42 in NNW 6 mph 12 mph 77% 0 in WeatherDisplay:10.37 W/m2
03:00 24.1 °F 17.9 °F 30.42 in NNW 7 mph 12 mph 77% 0 in WeatherDisplay:10.37 W/m2
03:05 24 °F 17.8 °F 30.42 in NNW 7 mph 13 mph 77% 0 in WeatherDisplay:10.37 W/m2
03:10 23.9 °F 18.1 °F 30.42 in NNW 6 mph 13 mph 78% 0 in WeatherDisplay:10.37 W/m2
03:15 23.9 °F 18.1 °F 30.42 in NNW 6 mph 13 mph 78% 0 in WeatherDisplay:10.37 W/m2
03:20 24 °F 18.1 °F 30.41 in NNW 6 mph 12 mph 78% 0 in WeatherDisplay:10.37 W/m2
03:25 24 °F 18.1 °F 30.41 in NNW 5 mph 9 mph 78% 0 in WeatherDisplay:10.37 W/m2
03:30 24.1 °F 18.5 °F 30.41 in NNW 2 mph 10 mph 79% 0 in WeatherDisplay:10.37 W/m2
03:35 24.2 °F 18.6 °F 30.41 in NNW 6 mph 12 mph 79% 0 in WeatherDisplay:10.37 W/m2
west seneca weather
Compliments of Weather Underground - 2 mb